createdAt,value
2023-01-08T00:00:09.680Z,94901.06
2023-01-08T00:02:39.393Z,94882.56
2023-01-08T00:05:06.787Z,94880.63
2023-01-08T00:07:33.342Z,94874.59
2023-01-08T00:09:59.886Z,94870.25
2023-01-08T00:12:26.429Z,94871.91
2023-01-08T00:14:53.192Z,94856.41
2023-01-08T00:17:19.792Z,94852.16
2023-01-08T00:19:46.335Z,94856.81
2023-01-08T00:22:12.873Z,94849.44
2023-01-08T00:24:39.426Z,94847.91
2023-01-08T00:27:06.005Z,94841.50
2023-01-08T00:29:32.606Z,94838.09
2023-01-08T00:31:59.229Z,94829.84
2023-01-08T00:34:25.860Z,94838.25
2023-01-08T00:36:52.397Z,94827.84
2023-01-08T00:39:18.912Z,94828.50
2023-01-08T00:41:45.827Z,94823.31
2023-01-08T00:44:12.400Z,94816.56
2023-01-08T00:46:38.908Z,94826.69
2023-01-08T00:49:05.471Z,94815.66
2023-01-08T00:51:32.087Z,94816.31
2023-01-08T00:53:59.211Z,94821.53
2023-01-08T00:56:25.737Z,94821.97
2023-01-08T00:58:52.282Z,94817.94
2023-01-08T01:01:18.967Z,94817.69
2023-01-08T01:03:45.679Z,94817.09
2023-01-08T01:06:14.075Z,94821.19
2023-01-08T01:08:41.530Z,94815.00
2023-01-08T01:11:22.764Z,94817.94
2023-01-08T01:13:49.782Z,94817.38
2023-01-08T01:16:16.998Z,94819.03
2023-01-08T01:18:43.825Z,94819.53
2023-01-08T01:21:24.776Z,94826.63
2023-01-08T01:23:55.135Z,94831.81
2023-01-08T01:26:22.544Z,94833.44
2023-01-08T01:28:51.542Z,94836.47
2023-01-08T01:31:18.863Z,94836.91
2023-01-08T01:33:46.647Z,94828.28
2023-01-08T01:36:15.015Z,94822.25
2023-01-08T01:38:49.359Z,94820.31
2023-01-08T01:41:27.178Z,94815.94
2023-01-08T01:43:55.607Z,94824.19
2023-01-08T01:46:38.739Z,94819.81
2023-01-08T01:49:15.480Z,94818.97
2023-01-08T01:51:49.087Z,94821.31
2023-01-08T01:54:17.769Z,94815.69
2023-01-08T01:56:45.510Z,94809.13
2023-01-08T01:59:12.436Z,94796.09
2023-01-08T02:01:41.557Z,94797.38
2023-01-08T02:04:11.567Z,94799.03
2023-01-08T02:06:48.156Z,94793.50
2023-01-08T02:09:23.719Z,94792.56
2023-01-08T02:12:16.472Z,94791.91
2023-01-08T02:15:00.790Z,94791.78
2023-01-08T02:17:37.367Z,94783.41
2023-01-08T02:20:18.646Z,94774.84
2023-01-08T02:22:54.685Z,94772.63
2023-01-08T02:25:30.137Z,94762.41
2023-01-08T02:27:58.824Z,94766.16
2023-01-08T02:30:25.688Z,94763.97
2023-01-08T02:32:52.279Z,94762.84
2023-01-08T02:35:18.878Z,94762.03
2023-01-08T02:37:45.552Z,94763.81
2023-01-08T02:40:33.865Z,94753.97
2023-01-08T02:43:12.308Z,94753.28
2023-01-08T02:45:48.691Z,94761.75
2023-01-08T02:48:30.947Z,94760.00
2023-01-08T02:51:11.074Z,94757.69
2023-01-08T02:53:47.245Z,94756.44
2023-01-08T02:56:18.114Z,94761.75
2023-01-08T02:58:47.865Z,94751.63
2023-01-08T03:01:17.202Z,94751.53
2023-01-08T03:03:49.092Z,94762.75
2023-01-08T03:06:18.842Z,94761.09
2023-01-08T03:08:48.820Z,94750.69
2023-01-08T03:11:18.723Z,94749.63
2023-01-08T03:14:00.444Z,94745.50
2023-01-08T03:16:33.905Z,94732.34
2023-01-08T03:19:15.526Z,94730.06
2023-01-08T03:21:44.892Z,94732.94
2023-01-08T03:24:15.619Z,94727.84
2023-01-08T03:26:45.391Z,94727.19
2023-01-08T03:29:15.768Z,94725.66
2023-01-08T03:31:44.452Z,94728.00
2023-01-08T03:34:13.662Z,94722.13
2023-01-08T03:36:45.047Z,94716.91
2023-01-08T03:39:33.088Z,94716.50
2023-01-08T03:42:07.440Z,94709.28
2023-01-08T03:44:33.959Z,94705.97
2023-01-08T03:47:01.480Z,94694.06
2023-01-08T03:49:29.662Z,94693.50
2023-01-08T03:51:56.772Z,94684.91
2023-01-08T03:54:29.249Z,94688.03
2023-01-08T03:56:55.805Z,94672.88
2023-01-08T03:59:22.455Z,94666.47
2023-01-08T04:01:50.236Z,94677.94
2023-01-08T04:04:17.642Z,94674.41
2023-01-08T04:06:44.206Z,94672.09
2023-01-08T04:09:10.823Z,94676.28
2023-01-08T04:11:37.540Z,94679.75
2023-01-08T04:14:04.148Z,94672.75
2023-01-08T04:16:31.607Z,94671.94
2023-01-08T04:18:58.172Z,94668.38
2023-01-08T04:21:24.767Z,94667.16
2023-01-08T04:23:51.307Z,94663.47
2023-01-08T04:26:17.821Z,94670.13
2023-01-08T04:28:44.414Z,94672.22
2023-01-08T04:31:11.012Z,94665.34
2023-01-08T04:33:37.991Z,94668.09
2023-01-08T04:36:05.363Z,94664.41
2023-01-08T04:38:31.956Z,94656.91
2023-01-08T04:41:00.519Z,94657.31
2023-01-08T04:43:27.637Z,94653.03
2023-01-08T04:45:58.753Z,94653.31
2023-01-08T04:48:25.541Z,94646.84
2023-01-08T04:50:52.104Z,94637.25
2023-01-08T04:53:18.677Z,94635.91
2023-01-08T04:55:45.269Z,94629.59
2023-01-08T04:58:12.245Z,94644.44
2023-01-08T05:00:40.057Z,94636.81
2023-01-08T05:03:06.873Z,94641.16
2023-01-08T05:05:34.720Z,94629.06
2023-01-08T05:08:01.300Z,94635.19
2023-01-08T05:10:27.842Z,94638.34
2023-01-08T05:12:59.240Z,94630.72
2023-01-08T05:15:26.080Z,94630.97
2023-01-08T05:18:04.808Z,94626.28
2023-01-08T05:20:34.465Z,94632.56
2023-01-08T05:23:02.005Z,94627.59
2023-01-08T05:25:28.538Z,94621.28
2023-01-08T05:27:55.099Z,94622.50
2023-01-08T05:30:21.644Z,94615.69
2023-01-08T05:32:48.206Z,94617.25
2023-01-08T05:35:14.772Z,94611.69
2023-01-08T05:37:41.370Z,94618.41
2023-01-08T05:40:08.451Z,94611.31
2023-01-08T05:42:35.405Z,94614.69
2023-01-08T05:45:06.354Z,94614.03
2023-01-08T05:47:34.790Z,94612.72
2023-01-08T05:50:01.411Z,94610.75
2023-01-08T05:52:28.258Z,94607.66
2023-01-08T05:54:54.807Z,94611.13
2023-01-08T05:57:21.398Z,94620.22
2023-01-08T05:59:48.025Z,94619.03
2023-01-08T06:02:14.585Z,94618.19
2023-01-08T06:04:41.227Z,94624.00
2023-01-08T06:07:07.851Z,94628.31
2023-01-08T06:09:34.379Z,94626.75
2023-01-08T06:12:00.947Z,94622.03
2023-01-08T06:14:27.555Z,94619.88
2023-01-08T06:16:54.172Z,94625.97
2023-01-08T06:19:20.807Z,94631.03
2023-01-08T06:21:47.385Z,94619.41
2023-01-08T06:24:13.979Z,94613.94
2023-01-08T06:26:40.521Z,94616.66
2023-01-08T06:29:07.124Z,94620.75
2023-01-08T06:31:33.746Z,94617.25
2023-01-08T06:34:00.276Z,94624.47
2023-01-08T06:36:26.814Z,94621.44
2023-01-08T06:38:53.488Z,94621.28
2023-01-08T06:41:20.025Z,94625.16
2023-01-08T06:43:46.541Z,94624.56
2023-01-08T06:46:13.202Z,94611.56
2023-01-08T06:48:39.770Z,94615.25
2023-01-08T06:51:06.720Z,94631.50
2023-01-08T06:53:33.399Z,94631.84
2023-01-08T06:56:00.109Z,94629.66
2023-01-08T06:58:27.775Z,94640.09
2023-01-08T07:00:54.680Z,94636.72
2023-01-08T07:03:21.294Z,94639.22
2023-01-08T07:05:50.616Z,94644.03
2023-01-08T07:08:18.105Z,94642.41
2023-01-08T07:10:45.166Z,94646.06
2023-01-08T07:13:12.730Z,94641.53
2023-01-08T07:15:42.971Z,94655.50
2023-01-08T07:18:11.736Z,94648.09
2023-01-08T07:20:38.651Z,94650.91
2023-01-08T07:23:08.050Z,94654.63
2023-01-08T07:25:34.651Z,94643.22
2023-01-08T07:28:01.974Z,94646.25
2023-01-08T07:30:30.515Z,94639.88
2023-01-08T07:33:01.665Z,94641.06
2023-01-08T07:35:28.968Z,94634.00
2023-01-08T07:37:55.792Z,94631.88
2023-01-08T07:40:23.005Z,94625.84
2023-01-08T07:42:58.000Z,94636.59
2023-01-08T07:45:24.767Z,94632.28
2023-01-08T07:47:51.309Z,94635.69
2023-01-08T07:50:17.962Z,94629.97
2023-01-08T07:52:44.518Z,94632.31
2023-01-08T07:55:11.106Z,94629.25
2023-01-08T07:57:37.664Z,94629.69
2023-01-08T08:00:04.700Z,94635.78
2023-01-08T08:02:33.720Z,94628.22
2023-01-08T08:05:00.393Z,94620.78
2023-01-08T08:07:27.220Z,94622.78
2023-01-08T08:09:53.817Z,94620.53
2023-01-08T08:12:20.402Z,94620.75
2023-01-08T08:14:46.976Z,94627.47
2023-01-08T08:17:13.493Z,94624.75
2023-01-08T08:19:43.670Z,94637.25
2023-01-08T08:22:10.268Z,94641.16
2023-01-08T08:24:36.808Z,94642.00
2023-01-08T08:27:03.498Z,94633.88
2023-01-08T08:29:30.064Z,94627.81
2023-01-08T08:31:56.648Z,94617.59
2023-01-08T08:34:23.553Z,94622.03
2023-01-08T08:36:50.106Z,94621.56
2023-01-08T08:39:16.874Z,94626.47
2023-01-08T08:41:43.415Z,94630.75
2023-01-08T08:44:10.003Z,94630.78
2023-01-08T08:46:36.712Z,94627.53
2023-01-08T08:49:03.381Z,94622.44
2023-01-08T08:51:29.934Z,94636.66
2023-01-08T08:53:56.507Z,94630.97
2023-01-08T08:56:23.110Z,94638.16
2023-01-08T08:58:50.690Z,94626.09
2023-01-08T09:01:17.398Z,94630.53
2023-01-08T09:03:44.043Z,94627.41
2023-01-08T09:06:14.502Z,94624.00
2023-01-08T09:08:41.334Z,94635.75
2023-01-08T09:11:07.886Z,94635.59
2023-01-08T09:13:36.108Z,94646.66
2023-01-08T09:16:03.128Z,94636.31
2023-01-08T09:18:29.775Z,94641.19
2023-01-08T09:20:56.287Z,94652.28
2023-01-08T09:23:22.824Z,94656.00
2023-01-08T09:25:49.346Z,94648.94
2023-01-08T09:28:17.244Z,94651.22
2023-01-08T09:30:43.779Z,94655.72
2023-01-08T09:33:11.245Z,94649.50
2023-01-08T09:35:37.771Z,94660.06
2023-01-08T09:38:04.331Z,94654.19
2023-01-08T09:40:43.217Z,94659.56
2023-01-08T09:43:17.399Z,94650.09
2023-01-08T09:45:49.016Z,94650.66
2023-01-08T09:48:18.092Z,94642.38
2023-01-08T09:50:45.000Z,94640.31
2023-01-08T09:53:17.448Z,94625.13
2023-01-08T09:55:46.372Z,94610.22
2023-01-08T09:58:33.113Z,94608.44
2023-01-08T10:01:02.895Z,94595.84
2023-01-08T10:03:37.969Z,94597.19
2023-01-08T10:06:12.887Z,94598.03
2023-01-08T10:08:40.310Z,94592.59
2023-01-08T10:11:07.932Z,94595.38
2023-01-08T10:13:37.934Z,94607.25
2023-01-08T10:16:10.951Z,94606.63
2023-01-08T10:18:38.382Z,94608.53
2023-01-08T10:21:05.490Z,94605.81
2023-01-08T10:23:32.080Z,94608.88
2023-01-08T10:26:01.072Z,94600.81
2023-01-08T10:28:30.182Z,94600.50
2023-01-08T10:31:09.166Z,94599.78
2023-01-08T10:33:42.479Z,94588.66
2023-01-08T10:36:13.720Z,94584.84
2023-01-08T10:38:43.047Z,94587.06
2023-01-08T10:41:12.437Z,94578.63
2023-01-08T10:43:55.085Z,94583.63
2023-01-08T10:46:24.576Z,94588.34
2023-01-08T10:48:57.502Z,94585.88
2023-01-08T10:51:26.089Z,94586.47
2023-01-08T10:53:54.455Z,94588.91
2023-01-08T10:56:22.883Z,94583.28
2023-01-08T10:58:50.548Z,94582.69
2023-01-08T11:01:23.518Z,94582.69
2023-01-08T11:03:52.899Z,94587.59
2023-01-08T11:06:23.058Z,94585.31
2023-01-08T11:08:55.584Z,94587.06
2023-01-08T11:11:23.626Z,94588.31
2023-01-08T11:14:03.661Z,94584.66
2023-01-08T11:16:33.411Z,94589.06
2023-01-08T11:19:00.127Z,94586.31
2023-01-08T11:21:31.599Z,94575.06
2023-01-08T11:24:26.991Z,94535.13
2023-01-08T11:26:57.956Z,94511.75
2023-01-08T11:29:34.871Z,94513.13
2023-01-08T11:32:13.598Z,94508.94
2023-01-08T11:34:56.203Z,94509.03
2023-01-08T11:37:25.660Z,94496.97
2023-01-08T11:39:53.298Z,94514.28
2023-01-08T11:42:35.759Z,94512.09
2023-01-08T11:45:30.265Z,94496.31
2023-01-08T11:48:02.972Z,94504.25
2023-01-08T11:50:46.145Z,94486.56
2023-01-08T11:53:18.749Z,94484.31
2023-01-08T11:56:09.278Z,94482.31
2023-01-08T11:59:05.501Z,94484.34
2023-01-08T12:01:45.003Z,94484.34
2023-01-08T12:04:30.005Z,94490.31
2023-01-08T12:07:24.798Z,94486.66
2023-01-08T12:10:09.695Z,94500.03
2023-01-08T12:12:54.974Z,94493.44
2023-01-08T12:16:06.693Z,94487.97
2023-01-08T12:19:14.889Z,94485.47
2023-01-08T12:21:47.303Z,94479.97
2023-01-08T12:24:38.636Z,94477.41
2023-01-08T12:27:56.384Z,94464.81
2023-01-08T12:30:36.501Z,94468.84
2023-01-08T12:33:10.812Z,94457.50
2023-01-08T12:35:47.609Z,94462.19
2023-01-08T12:38:25.148Z,94446.56
2023-01-08T12:41:06.919Z,94439.88
2023-01-08T12:43:58.832Z,94433.84
2023-01-08T12:46:29.473Z,94420.47
2023-01-08T12:48:57.695Z,94417.00
2023-01-08T12:52:00.619Z,94404.22
2023-01-08T12:54:33.641Z,94400.38
2023-01-08T12:57:16.498Z,94394.00
2023-01-08T13:00:08.758Z,94392.19
2023-01-08T13:02:38.234Z,94390.34
2023-01-08T13:05:35.406Z,94406.59
2023-01-08T13:08:08.176Z,94386.47
2023-01-08T13:10:36.974Z,94390.56
2023-01-08T13:13:05.761Z,94384.16
2023-01-08T13:15:33.382Z,94380.53
2023-01-08T13:18:15.326Z,94400.25
2023-01-08T13:20:42.427Z,94406.28
2023-01-08T13:23:24.803Z,94385.41
2023-01-08T13:25:53.621Z,94399.75
2023-01-08T13:28:39.024Z,94379.38
2023-01-08T13:31:30.303Z,94378.66
2023-01-08T13:33:56.966Z,94373.00
2023-01-08T13:36:28.587Z,94368.56
2023-01-08T13:39:10.140Z,94361.44
2023-01-08T13:41:41.272Z,94360.56
2023-01-08T13:44:30.969Z,94351.03
2023-01-08T13:47:04.389Z,94347.22
2023-01-08T13:49:41.813Z,94352.72
2023-01-08T13:52:30.135Z,94359.41
2023-01-08T13:54:57.211Z,94352.28
2023-01-08T13:57:24.383Z,94353.28
2023-01-08T13:59:58.958Z,94348.22
2023-01-08T14:02:27.557Z,94346.22
2023-01-08T14:04:54.589Z,94341.97
2023-01-08T14:07:23.616Z,94349.03
2023-01-08T14:09:50.679Z,94354.47
2023-01-08T14:12:20.403Z,94363.91
2023-01-08T14:14:58.857Z,94354.97
2023-01-08T14:17:32.186Z,94359.25
2023-01-08T14:19:59.585Z,94361.72
2023-01-08T14:22:33.884Z,94363.25
2023-01-08T14:25:03.589Z,94361.25
2023-01-08T14:27:31.718Z,94363.94
2023-01-08T14:29:59.046Z,94372.22
2023-01-08T14:32:29.321Z,94375.97
2023-01-08T14:34:58.554Z,94375.34
2023-01-08T14:37:25.419Z,94373.66
2023-01-08T14:39:54.668Z,94361.38
2023-01-08T14:42:47.160Z,94359.56
2023-01-08T14:45:21.272Z,94348.06
2023-01-08T14:47:51.574Z,94352.50
2023-01-08T14:50:24.958Z,94353.72
2023-01-08T14:52:58.043Z,94350.09
2023-01-08T14:55:26.867Z,94349.50
2023-01-08T14:57:56.038Z,94354.31
2023-01-08T15:00:26.614Z,94346.91
2023-01-08T15:02:53.566Z,94346.91
2023-01-08T15:05:28.287Z,94345.63
2023-01-08T15:08:21.073Z,94341.22
2023-01-08T15:10:58.143Z,94338.72
2023-01-08T15:13:29.989Z,94333.22
2023-01-08T15:16:01.008Z,94330.34
2023-01-08T15:18:27.598Z,94316.63
2023-01-08T15:20:55.251Z,94297.22
2023-01-08T15:23:37.678Z,94313.47
2023-01-08T15:26:04.525Z,94309.22
2023-01-08T15:28:31.148Z,94300.28
2023-01-08T15:30:57.973Z,94294.94
2023-01-08T15:33:26.237Z,94302.19
2023-01-08T15:35:53.144Z,94307.19
2023-01-08T15:38:24.034Z,94312.81
2023-01-08T15:40:53.128Z,94308.13
2023-01-08T15:43:20.088Z,94302.63
2023-01-08T15:45:49.505Z,94308.19
2023-01-08T15:48:16.094Z,94304.16
2023-01-08T15:50:44.492Z,94306.88
2023-01-08T15:53:24.708Z,94303.06
2023-01-08T15:55:51.676Z,94307.75
2023-01-08T15:58:18.619Z,94310.63
2023-01-08T16:00:46.442Z,94297.78
2023-01-08T16:03:14.549Z,94302.94
2023-01-08T16:05:41.430Z,94290.63
2023-01-08T16:08:08.055Z,94288.19
2023-01-08T16:10:34.824Z,94286.97
2023-01-08T16:13:01.920Z,94286.72
2023-01-08T16:15:30.724Z,94285.75
2023-01-08T16:17:58.097Z,94282.06
2023-01-08T16:20:24.888Z,94267.50
2023-01-08T16:22:51.489Z,94256.81
2023-01-08T16:25:18.118Z,94256.13
2023-01-08T16:27:44.677Z,94254.81
2023-01-08T16:30:14.690Z,94250.34
2023-01-08T16:32:41.925Z,94242.72
2023-01-08T16:35:09.341Z,94233.34
2023-01-08T16:37:35.921Z,94225.00
2023-01-08T16:40:02.579Z,94212.47
2023-01-08T16:42:29.395Z,94205.28
2023-01-08T16:44:55.953Z,94200.44
2023-01-08T16:47:22.562Z,94197.97
2023-01-08T16:49:50.371Z,94197.78
2023-01-08T16:52:17.520Z,94192.81
2023-01-08T16:54:44.945Z,94185.25
2023-01-08T16:57:11.550Z,94176.19
2023-01-08T16:59:38.111Z,94165.38
2023-01-08T17:02:04.704Z,94165.28
2023-01-08T17:04:31.579Z,94160.78
2023-01-08T17:06:58.182Z,94155.16
2023-01-08T17:09:25.535Z,94158.44
2023-01-08T17:11:52.128Z,94149.22
2023-01-08T17:14:18.727Z,94148.56
2023-01-08T17:16:45.523Z,94157.97
2023-01-08T17:19:13.326Z,94150.66
2023-01-08T17:21:40.257Z,94158.06
2023-01-08T17:24:07.550Z,94161.84
2023-01-08T17:26:34.182Z,94159.31
2023-01-08T17:29:00.708Z,94153.88
2023-01-08T17:31:27.457Z,94151.13
2023-01-08T17:33:54.555Z,94144.59
2023-01-08T17:36:23.792Z,94149.47
2023-01-08T17:38:53.326Z,94152.38
2023-01-08T17:41:53.660Z,94148.41
2023-01-08T17:44:20.259Z,94138.81
2023-01-08T17:46:46.848Z,94145.16
2023-01-08T17:49:14.980Z,94143.78
2023-01-08T17:51:43.158Z,94134.38
2023-01-08T17:54:11.943Z,94131.44
2023-01-08T17:56:38.844Z,94126.56
2023-01-08T17:59:05.441Z,94119.00
2023-01-08T18:01:34.756Z,94109.03
2023-01-08T18:04:01.484Z,94104.63
2023-01-08T18:06:28.060Z,94099.22
2023-01-08T18:08:54.622Z,94099.38
2023-01-08T18:11:21.306Z,94084.16
2023-01-08T18:13:48.081Z,94077.47
2023-01-08T18:16:15.061Z,94071.78
2023-01-08T18:18:41.673Z,94072.69
2023-01-08T18:21:08.846Z,94069.06
2023-01-08T18:23:35.425Z,94062.47
2023-01-08T18:26:12.353Z,94051.47
2023-01-08T18:28:39.216Z,94059.41
2023-01-08T18:31:07.640Z,94050.94
2023-01-08T18:33:34.801Z,94063.47
2023-01-08T18:36:06.054Z,94059.56
2023-01-08T18:38:33.433Z,94054.72
2023-01-08T18:40:59.990Z,94045.59
2023-01-08T18:43:26.887Z,94043.72
2023-01-08T18:45:59.047Z,94040.00
2023-01-08T18:48:25.855Z,94039.03
2023-01-08T18:50:52.454Z,94036.84
2023-01-08T18:53:19.039Z,94032.72
2023-01-08T18:55:45.603Z,94021.94
2023-01-08T18:58:12.153Z,94019.78
2023-01-08T19:00:38.756Z,94018.25
2023-01-08T19:03:08.804Z,94007.78
2023-01-08T19:05:40.923Z,93996.34
2023-01-08T19:08:07.497Z,94003.38
2023-01-08T19:10:38.571Z,93996.94
2023-01-08T19:13:05.968Z,93995.22
2023-01-08T19:15:33.234Z,93997.56
2023-01-08T19:18:00.134Z,93991.25
2023-01-08T19:20:27.428Z,93980.16
2023-01-08T19:22:54.405Z,93974.91
2023-01-08T19:25:21.473Z,93969.78
2023-01-08T19:27:48.093Z,93967.97
2023-01-08T19:30:15.390Z,93965.19
2023-01-08T19:32:41.941Z,93961.25
2023-01-08T19:35:08.906Z,93951.22
2023-01-08T19:37:35.499Z,93947.53
2023-01-08T19:40:02.090Z,93926.75
2023-01-08T19:42:47.753Z,93922.91
2023-01-08T19:45:14.465Z,93924.09
2023-01-08T19:47:41.884Z,93921.84
2023-01-08T19:50:09.295Z,93920.81
2023-01-08T19:52:36.272Z,93911.06
2023-01-08T19:55:02.982Z,93898.53
2023-01-08T19:57:29.656Z,93884.28
2023-01-08T19:59:56.210Z,93887.22
2023-01-08T20:02:22.894Z,93881.53
2023-01-08T20:04:50.588Z,93889.22
2023-01-08T20:07:17.363Z,93890.56
2023-01-08T20:09:43.999Z,93884.44
2023-01-08T20:12:11.093Z,93891.28
2023-01-08T20:14:37.637Z,93886.47
2023-01-08T20:17:04.250Z,93889.56
2023-01-08T20:19:30.791Z,93899.38
2023-01-08T20:21:58.932Z,93890.25
2023-01-08T20:24:25.503Z,93888.56
2023-01-08T20:26:52.032Z,93888.75
2023-01-08T20:29:18.664Z,93887.63
2023-01-08T20:31:45.404Z,93884.03
2023-01-08T20:34:15.506Z,93881.16
2023-01-08T20:36:43.718Z,93880.84
2023-01-08T20:39:14.560Z,93875.00
2023-01-08T20:41:46.603Z,93872.19
2023-01-08T20:44:22.426Z,93876.22
2023-01-08T20:46:49.203Z,93877.72
2023-01-08T20:49:18.353Z,93879.88
2023-01-08T20:51:54.379Z,93874.13
2023-01-08T20:54:25.212Z,93870.94
2023-01-08T20:56:51.761Z,93869.50
2023-01-08T20:59:18.377Z,93862.66
2023-01-08T21:01:44.956Z,93867.50
2023-01-08T21:04:11.893Z,93869.13
2023-01-08T21:06:38.767Z,93875.44
2023-01-08T21:09:08.092Z,93868.13
2023-01-08T21:11:37.183Z,93866.53
2023-01-08T21:14:04.045Z,93869.13
2023-01-08T21:16:32.117Z,93867.56
2023-01-08T21:18:59.143Z,93858.94
2023-01-08T21:21:29.629Z,93859.59
2023-01-08T21:23:57.369Z,93854.50
2023-01-08T21:26:24.263Z,93846.81
2023-01-08T21:28:50.867Z,93840.03
2023-01-08T21:31:20.600Z,93854.91
2023-01-08T21:33:48.842Z,93853.75
2023-01-08T21:36:23.618Z,93854.84
2023-01-08T21:38:50.685Z,93858.78
2023-01-08T21:41:38.781Z,93844.66
2023-01-08T21:44:48.605Z,93844.78
2023-01-08T21:47:17.227Z,93839.19
2023-01-08T21:49:44.676Z,93834.91
2023-01-08T21:52:30.224Z,93850.44
2023-01-08T21:54:58.182Z,93821.50
2023-01-08T21:57:27.565Z,93821.94
2023-01-08T21:59:54.698Z,93820.16
2023-01-08T22:02:23.290Z,93814.44
2023-01-08T22:04:50.548Z,93806.56
2023-01-08T22:07:17.144Z,93801.03
2023-01-08T22:09:43.836Z,93813.00
2023-01-08T22:12:10.472Z,93807.34
2023-01-08T22:14:37.222Z,93805.56
2023-01-08T22:17:05.081Z,93791.84
2023-01-08T22:19:31.617Z,93790.63
2023-01-08T22:21:58.219Z,93781.13
2023-01-08T22:24:24.927Z,93773.53
2023-01-08T22:26:51.542Z,93750.22
2023-01-08T22:29:18.150Z,93741.56
2023-01-08T22:31:44.805Z,93739.16
2023-01-08T22:34:16.841Z,93727.25
2023-01-08T22:36:44.653Z,93719.34
2023-01-08T22:39:11.639Z,93717.59
2023-01-08T22:41:38.270Z,93707.50
2023-01-08T22:44:04.902Z,93707.91
2023-01-08T22:46:31.715Z,93709.75
2023-01-08T22:48:58.385Z,93707.38
2023-01-08T22:51:27.799Z,93699.38
2023-01-08T22:53:55.984Z,93693.09
2023-01-08T22:56:22.561Z,93685.44
2023-01-08T22:58:49.177Z,93690.75
2023-01-08T23:01:18.899Z,93681.56
2023-01-08T23:03:49.209Z,93681.38
2023-01-08T23:06:17.407Z,93673.75
2023-01-08T23:08:44.955Z,93671.50
2023-01-08T23:11:14.654Z,93672.13
2023-01-08T23:13:42.201Z,93663.06
2023-01-08T23:16:11.635Z,93664.31
2023-01-08T23:18:38.545Z,93656.00
2023-01-08T23:21:08.541Z,93656.63
2023-01-08T23:23:35.110Z,93649.75
2023-01-08T23:26:06.108Z,93655.13
2023-01-08T23:28:32.798Z,93650.56
2023-01-08T23:30:59.374Z,93639.09
2023-01-08T23:33:26.191Z,93643.06
2023-01-08T23:35:52.814Z,93638.00
2023-01-08T23:38:19.431Z,93640.13
2023-01-08T23:40:46.432Z,93631.34
2023-01-08T23:43:13.358Z,93644.41
2023-01-08T23:45:39.999Z,93646.41
2023-01-08T23:48:07.582Z,93650.41
2023-01-08T23:50:34.558Z,93657.63
2023-01-08T23:53:01.183Z,93665.91
2023-01-08T23:55:27.738Z,93668.34
2023-01-08T23:57:54.291Z,93663.84
